Goldsboro, NC

8:42 AM EST on March 01, 2015 (GMT -0500)
Downtown Goldsboro | Change Station
CLOSE
Current Station
Personal Weather Station
Location: Goldsboro, NC
Elevation: 108 ft
Nearby Weather Stations
Active Advisory: Winter Weather Advisory Active Notice: Public Information Statement

Elev 108 ft 35.38 °N, 78.00 °W | Updated 16 seconds ago

Overcast
Overcast
33.8 °F
Feels Like 34 °F
N
2.0
Wind Variable Wind from SW
Gusts 4.0 mph

Today
High -- | Low -- °F
--% Chance of Precip.
Yesterday
High -- | Low -- °F
Precip. -- in
6:42 AM 6:07 PM
Waxing Gibbous, 85% visible
Pressure 30.55 in
Visibility 10.0 miles
Clouds Scattered Clouds 1500 ft
Mostly Cloudy 7500 ft
Overcast 9000 ft
Windchill 34 °F
Dew Point 27 °F
Humidity 75%
Rainfall 0.00 in
Snow Depth Not available.
UV 0 out of 12
Pollen .80 out of 12
Air Quality Not available.
Flu Activity Not available.
SPECI KGSB 011307Z AUTO 06007KT 10SM SCT015 BKN075 OVC090 00/00 A3055 RMK AO2

More Conditions Fewer Conditions

Pressure 30.55 in
Visibility 10.0 miles
Clouds Scattered Clouds 1500 ft
Mostly Cloudy 7500 ft
Overcast 9000 ft
Windchill 34 °F
Dew Point 27 °F
Humidity 75%
Rainfall 0.00 in
Snow Depth Not available.
UV 0 out of 12
Pollen .80 out of 12
Air Quality Not available.
Flu Activity Not available.
SPECI KGSB 011307Z AUTO 06007KT 10SM SCT015 BKN075 OVC090 00/00 A3055 RMK AO2

More Conditions Fewer Conditions

10-Day Weather Forecast

Almanac

Astronomy

Mar. 01, 2015 Rise Set
Actual Time
Civil Twilight
Nautical Twilight
Astronomical Twilight
Moon
Length of Visible Light
Length of Day
Tomorrow will be .
, % of the Moon is Illuminated

Today's Extremes

State Highs State Lows

Community

WunderPhotos

Upload Photos

1,801,382 photos uploaded!

WunderBlogs® & News

Nearby

Air Quality

  Air Quality AQ Index Pollutant
Not available.

Snow Depth

Station Depth Elevation

Earthquake Activity

City Distance Mag. Time & Date
Minimum magnitude displayed is 2.5.

Coastal Water Temperatures

Place Temperature

Nearby Weather Stations

Winter Weather Advisory
Statement as of 4:15 AM EST on March 01, 2015

... Winter Weather Advisory remains in effect until 10 am EST this
morning...

* locations... include the southern and central coastal plain of
NC... the sandhills and the southern Piedmont.

* Hazard types... light freezing rain and freezing drizzle.

* Accumulations... a couple hundredths of ice accrual.

* Timing... through late this morning.

* Impacts... a thin glaze of ice... particularly on elevated
surfaces including bridges and overpasses... will result in
dangerous driving conditions.

* Temperatures... in the lower 30s.

Precautionary/preparedness actions...

This Winter Weather Advisory means that periods of freezing rain
or freezing drizzle will cause travel difficulties. Be prepared
for slippery roads... and use extra caution while driving.